RYR2CL LIME-EBCI
Flight info
| Callsign | RYR2CL |
|---|---|
| Flight time | 1h 17m |
| Altitude | 34000 |
| Route | ARLES DCT PUNSA DCT VADEM DCT GILIR DCT PENDU DCT IXILU DCT GIVOR/N0415F320 DCT SORAL DCT IBERA N853 DIK Y37 BATTY |
| Aircraft | B738/M-SDE3FGILRWY/SB1 |
Departure
| Time | 2026-04-28 10:26 |
|---|---|
| Airport | Il Caravaggio International Airport (LIME) |
Arrival
| Time | 2026-04-28 11:43 |
|---|---|
| Airport | Brussels South Charleroi Airport (EBCI) |
| Time | Latitude | Longitude | Altitude | Speed | Heading |
|---|---|---|---|---|---|
| 2026-04-28 10:04 | 45.66651 | 9.69921 | 786 ft | 0 kts | 195° |
| 2026-04-28 10:17 | 45.66658 | 9.69924 | 786 ft | 4 kts | 194° |
| 2026-04-28 10:17 | 45.66684 | 9.69933 | 786 ft | 4 kts | 190° |
| 2026-04-28 10:17 | 45.66711 | 9.69938 | 786 ft | 4 kts | 183° |
| 2026-04-28 10:17 | 45.66738 | 9.69937 | 786 ft | 4 kts | 164° |
| 2026-04-28 10:18 | 45.66757 | 9.69922 | 786 ft | 3 kts | 108° |
| 2026-04-28 10:18 | 45.66757 | 9.69919 | 786 ft | 1 kts | 105° |
| 2026-04-28 10:21 | 45.66752 | 9.69946 | 786 ft | 6 kts | 105° |
| 2026-04-28 10:22 | 45.66735 | 9.70036 | 786 ft | 13 kts | 105° |
| 2026-04-28 10:22 | 45.66706 | 9.70188 | 786 ft | 18 kts | 105° |
| 2026-04-28 10:22 | 45.66673 | 9.70368 | 786 ft | 19 kts | 104° |
| 2026-04-28 10:22 | 45.66641 | 9.70549 | 786 ft | 18 kts | 104° |
| 2026-04-28 10:23 | 45.66610 | 9.70724 | 786 ft | 18 kts | 104° |
| 2026-04-28 10:23 | 45.66578 | 9.70889 | 786 ft | 17 kts | 104° |
| 2026-04-28 10:23 | 45.66547 | 9.71053 | 786 ft | 17 kts | 109° |
| 2026-04-28 10:23 | 45.66507 | 9.71204 | 786 ft | 16 kts | 111° |
| 2026-04-28 10:24 | 45.66476 | 9.71358 | 786 ft | 17 kts | 105° |
| 2026-04-28 10:24 | 45.66444 | 9.71532 | 786 ft | 19 kts | 104° |
| 2026-04-28 10:24 | 45.66459 | 9.71725 | 786 ft | 21 kts | 75° |
| 2026-04-28 10:24 | 45.66510 | 9.71917 | 786 ft | 21 kts | 46° |
| 2026-04-28 10:25 | 45.66561 | 9.71891 | 786 ft | 8 kts | 287° |
| 2026-04-28 10:25 | 45.66567 | 9.71862 | 786 ft | 7 kts | 285° |
| 2026-04-28 10:25 | 45.66644 | 9.71448 | 786 ft | 79 kts | 284° |
| 2026-04-28 10:25 | 45.66840 | 9.70389 | 786 ft | 139 kts | 284° |
| 2026-04-28 10:26 | 45.67121 | 9.68887 | 1140 ft | 159 kts | 286° |
| 2026-04-28 10:26 | 45.67381 | 9.67321 | 1768 ft | 167 kts | 274° |
| 2026-04-28 10:26 | 45.67156 | 9.65670 | 2402 ft | 171 kts | 251° |
| 2026-04-28 10:26 | 45.66829 | 9.64003 | 3046 ft | 183 kts | 260° |
| 2026-04-28 10:27 | 45.66739 | 9.62040 | 3400 ft | 212 kts | 268° |
| 2026-04-28 10:27 | 45.66688 | 9.59831 | 3722 ft | 231 kts | 266° |
| 2026-04-28 10:27 | 45.66626 | 9.57450 | 4139 ft | 247 kts | 267° |
| 2026-04-28 10:27 | 45.66566 | 9.54970 | 4899 ft | 252 kts | 267° |
| 2026-04-28 10:28 | 45.66501 | 9.52377 | 5524 ft | 268 kts | 266° |
| 2026-04-28 10:28 | 45.66431 | 9.49679 | 6296 ft | 273 kts | 266° |
| 2026-04-28 10:28 | 45.66359 | 9.46953 | 7125 ft | 276 kts | 266° |
| 2026-04-28 10:29 | 45.66189 | 9.41442 | 8824 ft | 279 kts | 265° |
| 2026-04-28 10:29 | 45.66079 | 9.38669 | 9674 ft | 280 kts | 265° |
| 2026-04-28 10:29 | 45.65967 | 9.35877 | 10375 ft | 284 kts | 265° |
| 2026-04-28 10:29 | 45.65848 | 9.32950 | 10625 ft | 307 kts | 265° |
| 2026-04-28 10:30 | 45.65719 | 9.29783 | 10843 ft | 329 kts | 265° |
| 2026-04-28 10:30 | 45.65586 | 9.26464 | 11379 ft | 338 kts | 265° |
| 2026-04-28 10:30 | 45.65452 | 9.23093 | 12170 ft | 341 kts | 265° |
| 2026-04-28 10:30 | 45.65316 | 9.19696 | 12992 ft | 343 kts | 266° |
| 2026-04-28 10:31 | 45.65225 | 9.17437 | 13521 ft | 345 kts | 266° |
| 2026-04-28 10:31 | 45.65087 | 9.13996 | 14262 ft | 349 kts | 266° |
| 2026-04-28 10:31 | 45.64944 | 9.10520 | 15001 ft | 351 kts | 266° |
| 2026-04-28 10:31 | 45.64801 | 9.07031 | 15769 ft | 353 kts | 266° |
| 2026-04-28 10:32 | 45.64933 | 9.03509 | 16496 ft | 358 kts | 279° |
| 2026-04-28 10:32 | 45.65631 | 9.00068 | 17209 ft | 365 kts | 290° |
| 2026-04-28 10:32 | 45.66824 | 8.96832 | 17922 ft | 371 kts | 299° |
| 2026-04-28 10:32 | 45.68205 | 8.93694 | 18626 ft | 375 kts | 300° |
| 2026-04-28 10:33 | 45.69624 | 8.90547 | 19301 ft | 377 kts | 300° |
| 2026-04-28 10:33 | 45.71038 | 8.87420 | 19975 ft | 378 kts | 300° |
| 2026-04-28 10:33 | 45.72463 | 8.84245 | 20633 ft | 380 kts | 300° |
| 2026-04-28 10:33 | 45.73890 | 8.81044 | 21257 ft | 383 kts | 300° |
| 2026-04-28 10:34 | 45.75318 | 8.77815 | 21866 ft | 385 kts | 300° |
| 2026-04-28 10:34 | 45.76752 | 8.74559 | 22493 ft | 387 kts | 300° |
| 2026-04-28 10:34 | 45.78191 | 8.71281 | 23106 ft | 390 kts | 300° |
| 2026-04-28 10:34 | 45.79636 | 8.67981 | 23678 ft | 392 kts | 300° |
| 2026-04-28 10:35 | 45.81088 | 8.64658 | 24161 ft | 395 kts | 299° |
| 2026-04-28 10:35 | 45.83026 | 8.60218 | 24784 ft | 398 kts | 299° |
| 2026-04-28 10:35 | 45.84018 | 8.57944 | 25111 ft | 399 kts | 299° |
| 2026-04-28 10:35 | 45.85489 | 8.54566 | 25588 ft | 401 kts | 299° |
| 2026-04-28 10:36 | 45.86972 | 8.51156 | 26029 ft | 403 kts | 299° |
| 2026-04-28 10:36 | 45.88458 | 8.47737 | 26510 ft | 405 kts | 299° |
| 2026-04-28 10:36 | 45.89947 | 8.44306 | 27013 ft | 405 kts | 299° |
| 2026-04-28 10:36 | 45.91444 | 8.40851 | 27392 ft | 410 kts | 299° |
| 2026-04-28 10:37 | 45.92954 | 8.37362 | 27755 ft | 413 kts | 298° |
| 2026-04-28 10:37 | 45.94471 | 8.33855 | 28233 ft | 413 kts | 298° |
| 2026-04-28 10:37 | 45.95990 | 8.30337 | 28631 ft | 415 kts | 298° |
| 2026-04-28 10:37 | 45.97518 | 8.26785 | 28894 ft | 420 kts | 298° |
| 2026-04-28 10:38 | 45.99054 | 8.23216 | 29282 ft | 420 kts | 298° |
| 2026-04-28 10:38 | 46.00595 | 8.19643 | 29765 ft | 421 kts | 298° |
| 2026-04-28 10:38 | 46.02140 | 8.16050 | 30100 ft | 423 kts | 298° |
| 2026-04-28 10:38 | 46.03687 | 8.12447 | 30457 ft | 423 kts | 298° |
| 2026-04-28 10:39 | 46.05221 | 8.08876 | 31110 ft | 417 kts | 298° |
| 2026-04-28 10:39 | 46.06735 | 8.05334 | 31651 ft | 414 kts | 298° |
| 2026-04-28 10:39 | 46.08245 | 8.01800 | 31961 ft | 415 kts | 298° |
| 2026-04-28 10:39 | 46.09761 | 7.98253 | 32286 ft | 416 kts | 298° |
| 2026-04-28 10:40 | 46.11276 | 7.94714 | 32749 ft | 414 kts | 297° |
| 2026-04-28 10:40 | 46.12783 | 7.91191 | 33132 ft | 412 kts | 297° |
| 2026-04-28 10:40 | 46.14286 | 7.87673 | 33416 ft | 413 kts | 297° |
| 2026-04-28 10:40 | 46.15786 | 7.84153 | 33823 ft | 411 kts | 297° |
| 2026-04-28 10:41 | 46.17282 | 7.80640 | 34073 ft | 410 kts | 297° |
| 2026-04-28 10:41 | 46.20265 | 7.73616 | 34090 ft | 410 kts | 297° |
| 2026-04-28 10:42 | 46.23223 | 7.66634 | 34072 ft | 409 kts | 297° |
| 2026-04-28 10:42 | 46.26190 | 7.59623 | 34079 ft | 409 kts | 297° |
| 2026-04-28 10:43 | 46.29172 | 7.52546 | 34060 ft | 410 kts | 297° |
| 2026-04-28 10:43 | 46.32114 | 7.45547 | 34077 ft | 409 kts | 297° |
| 2026-04-28 10:44 | 46.35067 | 7.38505 | 34087 ft | 409 kts | 297° |
| 2026-04-28 10:44 | 46.38015 | 7.31457 | 34042 ft | 409 kts | 297° |
| 2026-04-28 10:45 | 46.40953 | 7.24421 | 34033 ft | 407 kts | 297° |
| 2026-04-28 10:45 | 46.43866 | 7.17424 | 34064 ft | 405 kts | 296° |
| 2026-04-28 10:46 | 46.46768 | 7.10444 | 34055 ft | 403 kts | 296° |
| 2026-04-28 10:46 | 46.49658 | 7.03455 | 34060 ft | 405 kts | 296° |
| 2026-04-28 10:47 | 46.52555 | 6.96437 | 34074 ft | 406 kts | 296° |
| 2026-04-28 10:47 | 46.55457 | 6.89394 | 34066 ft | 407 kts | 296° |
| 2026-04-28 10:48 | 46.58362 | 6.82327 | 34073 ft | 407 kts | 296° |
| 2026-04-28 10:48 | 46.61258 | 6.75267 | 34068 ft | 405 kts | 296° |
| 2026-04-28 10:49 | 46.64132 | 6.68236 | 34071 ft | 403 kts | 296° |
| 2026-04-28 10:49 | 46.66990 | 6.61226 | 34066 ft | 402 kts | 296° |
| 2026-04-28 10:50 | 46.69838 | 6.54231 | 34063 ft | 401 kts | 297° |
| 2026-04-28 10:50 | 46.73572 | 6.48092 | 34065 ft | 412 kts | 314° |
| 2026-04-28 10:50 | 46.75923 | 6.45737 | 34045 ft | 411 kts | 326° |
| 2026-04-28 10:51 | 46.78576 | 6.44155 | 34070 ft | 415 kts | 335° |
| 2026-04-28 10:51 | 46.84332 | 6.42961 | 34075 ft | 423 kts | 352° |
| 2026-04-28 10:52 | 46.90207 | 6.43028 | 34056 ft | 421 kts | 353° |
| 2026-04-28 10:52 | 46.96081 | 6.43142 | 34061 ft | 429 kts | 353° |
| 2026-04-28 10:53 | 47.02078 | 6.43203 | 34064 ft | 432 kts | 353° |
| 2026-04-28 10:53 | 47.08085 | 6.43233 | 34061 ft | 432 kts | 352° |
| 2026-04-28 10:54 | 47.14095 | 6.43252 | 34043 ft | 432 kts | 352° |
| 2026-04-28 10:54 | 47.20092 | 6.43268 | 34042 ft | 430 kts | 352° |
| 2026-04-28 10:55 | 47.26075 | 6.43284 | 34057 ft | 429 kts | 352° |
| 2026-04-28 10:55 | 47.32050 | 6.43300 | 34039 ft | 429 kts | 352° |
| 2026-04-28 10:56 | 47.38015 | 6.43314 | 34048 ft | 428 kts | 352° |
| 2026-04-28 10:56 | 47.43973 | 6.43331 | 34049 ft | 428 kts | 352° |
| 2026-04-28 10:57 | 47.49925 | 6.43349 | 34056 ft | 428 kts | 352° |
| 2026-04-28 10:57 | 47.55883 | 6.43364 | 34059 ft | 428 kts | 352° |
| 2026-04-28 10:58 | 47.61848 | 6.43379 | 34050 ft | 429 kts | 352° |
| 2026-04-28 10:58 | 47.67824 | 6.43395 | 34056 ft | 430 kts | 352° |
| 2026-04-28 10:59 | 47.73815 | 6.43411 | 34050 ft | 431 kts | 352° |
| 2026-04-28 10:59 | 47.79770 | 6.43428 | 34047 ft | 431 kts | 352° |
| 2026-04-28 11:00 | 47.85778 | 6.43444 | 34065 ft | 432 kts | 352° |
| 2026-04-28 11:00 | 47.91794 | 6.43461 | 34051 ft | 432 kts | 352° |
| 2026-04-28 11:01 | 47.97798 | 6.43478 | 34047 ft | 431 kts | 352° |
| 2026-04-28 11:01 | 48.03788 | 6.43496 | 34052 ft | 429 kts | 352° |
| 2026-04-28 11:02 | 48.09751 | 6.43514 | 34056 ft | 428 kts | 352° |
| 2026-04-28 11:02 | 48.15692 | 6.43531 | 34056 ft | 426 kts | 352° |
| 2026-04-28 11:03 | 48.21617 | 6.43547 | 34059 ft | 425 kts | 352° |
| 2026-04-28 11:03 | 48.27522 | 6.43563 | 34101 ft | 424 kts | 352° |
| 2026-04-28 11:04 | 48.33434 | 6.43578 | 34075 ft | 425 kts | 352° |
| 2026-04-28 11:04 | 48.39359 | 6.43593 | 34064 ft | 426 kts | 352° |
| 2026-04-28 11:05 | 48.45300 | 6.43610 | 34059 ft | 427 kts | 352° |
| 2026-04-28 11:05 | 48.51248 | 6.43626 | 34069 ft | 428 kts | 353° |
| 2026-04-28 11:06 | 48.57213 | 6.43643 | 34073 ft | 429 kts | 353° |
| 2026-04-28 11:06 | 48.63199 | 6.43660 | 34071 ft | 431 kts | 353° |
| 2026-04-28 11:07 | 48.69196 | 6.43605 | 34068 ft | 428 kts | 347° |
| 2026-04-28 11:07 | 48.75017 | 6.42254 | 34071 ft | 422 kts | 342° |
| 2026-04-28 11:08 | 48.80801 | 6.40639 | 34068 ft | 423 kts | 342° |
| 2026-04-28 11:08 | 48.86593 | 6.39076 | 34072 ft | 423 kts | 342° |
| 2026-04-28 11:09 | 48.92390 | 6.37564 | 34058 ft | 423 kts | 344° |
| 2026-04-28 11:09 | 48.98192 | 6.36069 | 34078 ft | 423 kts | 344° |
| 2026-04-28 11:10 | 49.04015 | 6.34568 | 34086 ft | 425 kts | 344° |
| 2026-04-28 11:10 | 49.09823 | 6.33066 | 34077 ft | 427 kts | 344° |
| 2026-04-28 11:11 | 49.15694 | 6.31543 | 34086 ft | 429 kts | 346° |
| 2026-04-28 11:11 | 49.21593 | 6.30011 | 34074 ft | 431 kts | 346° |
| 2026-04-28 11:12 | 49.27488 | 6.28478 | 34045 ft | 424 kts | 346° |
| 2026-04-28 11:12 | 49.30377 | 6.27728 | 33727 ft | 418 kts | 345° |
| 2026-04-28 11:12 | 49.33218 | 6.26990 | 33410 ft | 412 kts | 345° |
| 2026-04-28 11:12 | 49.36030 | 6.26255 | 33091 ft | 408 kts | 345° |
| 2026-04-28 11:13 | 49.38817 | 6.25524 | 32703 ft | 405 kts | 345° |
| 2026-04-28 11:13 | 49.41583 | 6.24798 | 32355 ft | 402 kts | 345° |
| 2026-04-28 11:13 | 49.44332 | 6.24075 | 31992 ft | 399 kts | 345° |
| 2026-04-28 11:13 | 49.47056 | 6.23358 | 31638 ft | 396 kts | 345° |
| 2026-04-28 11:14 | 49.49767 | 6.22644 | 31289 ft | 394 kts | 345° |
| 2026-04-28 11:14 | 49.52458 | 6.21935 | 30943 ft | 391 kts | 345° |
| 2026-04-28 11:14 | 49.55129 | 6.21231 | 30602 ft | 389 kts | 345° |
| 2026-04-28 11:14 | 49.57786 | 6.20529 | 30260 ft | 386 kts | 345° |
| 2026-04-28 11:15 | 49.60426 | 6.19831 | 29876 ft | 384 kts | 346° |
| 2026-04-28 11:15 | 49.63047 | 6.19137 | 29488 ft | 381 kts | 346° |
| 2026-04-28 11:15 | 49.65644 | 6.18449 | 29139 ft | 377 kts | 346° |
| 2026-04-28 11:15 | 49.68216 | 6.17767 | 28770 ft | 373 kts | 346° |
| 2026-04-28 11:16 | 49.70765 | 6.17090 | 28412 ft | 370 kts | 346° |
| 2026-04-28 11:16 | 49.73296 | 6.16417 | 28061 ft | 367 kts | 346° |
| 2026-04-28 11:16 | 49.75803 | 6.15750 | 27710 ft | 364 kts | 346° |
| 2026-04-28 11:16 | 49.78294 | 6.15086 | 27357 ft | 362 kts | 346° |
| 2026-04-28 11:17 | 49.80770 | 6.14425 | 27011 ft | 360 kts | 346° |
| 2026-04-28 11:17 | 49.83227 | 6.13770 | 26674 ft | 358 kts | 347° |
| 2026-04-28 11:17 | 49.85673 | 6.13116 | 26323 ft | 356 kts | 347° |
| 2026-04-28 11:17 | 49.87289 | 6.12662 | 26018 ft | 357 kts | 345° |
| 2026-04-28 11:18 | 49.89705 | 6.11855 | 25796 ft | 356 kts | 343° |
| 2026-04-28 11:18 | 49.92172 | 6.10967 | 25580 ft | 372 kts | 344° |
| 2026-04-28 11:18 | 49.94732 | 6.10030 | 25328 ft | 382 kts | 344° |
| 2026-04-28 11:18 | 49.97316 | 6.09093 | 24988 ft | 380 kts | 344° |
| 2026-04-28 11:19 | 49.99886 | 6.08172 | 24615 ft | 378 kts | 345° |
| 2026-04-28 11:19 | 50.02440 | 6.07262 | 24231 ft | 376 kts | 345° |
| 2026-04-28 11:19 | 50.04984 | 6.06360 | 23863 ft | 374 kts | 345° |
| 2026-04-28 11:19 | 50.07523 | 6.05462 | 23411 ft | 374 kts | 345° |
| 2026-04-28 11:20 | 50.10051 | 6.04565 | 22988 ft | 372 kts | 345° |
| 2026-04-28 11:20 | 50.12562 | 6.03676 | 22590 ft | 369 kts | 344° |
| 2026-04-28 11:20 | 50.15058 | 6.02790 | 22198 ft | 367 kts | 346° |
| 2026-04-28 11:20 | 50.17538 | 6.01909 | 21820 ft | 364 kts | 345° |
| 2026-04-28 11:21 | 50.20002 | 6.01032 | 21444 ft | 362 kts | 346° |
| 2026-04-28 11:21 | 50.22455 | 6.00160 | 21054 ft | 360 kts | 344° |
| 2026-04-28 11:21 | 50.24890 | 5.99297 | 20692 ft | 358 kts | 345° |
| 2026-04-28 11:21 | 50.27315 | 5.98431 | 20325 ft | 357 kts | 345° |
| 2026-04-28 11:22 | 50.29731 | 5.97566 | 19954 ft | 356 kts | 346° |
| 2026-04-28 11:22 | 50.32138 | 5.96703 | 19586 ft | 354 kts | 345° |
| 2026-04-28 11:22 | 50.34542 | 5.95842 | 19202 ft | 354 kts | 345° |
| 2026-04-28 11:22 | 50.36944 | 5.94980 | 18825 ft | 354 kts | 346° |
| 2026-04-28 11:23 | 50.39341 | 5.94120 | 18458 ft | 353 kts | 346° |
| 2026-04-28 11:23 | 50.41735 | 5.93261 | 18041 ft | 352 kts | 346° |
| 2026-04-28 11:23 | 50.44125 | 5.92403 | 17643 ft | 351 kts | 346° |
| 2026-04-28 11:23 | 50.46505 | 5.91547 | 17254 ft | 351 kts | 346° |
| 2026-04-28 11:24 | 50.48875 | 5.90694 | 16869 ft | 349 kts | 346° |
| 2026-04-28 11:24 | 50.51233 | 5.89844 | 16497 ft | 347 kts | 345° |
| 2026-04-28 11:24 | 50.53445 | 5.88454 | 16156 ft | 340 kts | 321° |
| 2026-04-28 11:24 | 50.54963 | 5.85773 | 15932 ft | 329 kts | 294° |
| 2026-04-28 11:25 | 50.55748 | 5.82448 | 15697 ft | 322 kts | 278° |
| 2026-04-28 11:25 | 50.55907 | 5.78980 | 15447 ft | 317 kts | 265° |
| 2026-04-28 11:25 | 50.55730 | 5.75521 | 15226 ft | 319 kts | 262° |
| 2026-04-28 11:25 | 50.55488 | 5.72038 | 14989 ft | 322 kts | 261° |
| 2026-04-28 11:26 | 50.55234 | 5.68534 | 14731 ft | 322 kts | 260° |
| 2026-04-28 11:26 | 50.54981 | 5.65038 | 14482 ft | 321 kts | 261° |
| 2026-04-28 11:26 | 50.54736 | 5.61557 | 14247 ft | 320 kts | 260° |
| 2026-04-28 11:26 | 50.54494 | 5.58086 | 14000 ft | 319 kts | 261° |
| 2026-04-28 11:27 | 50.54258 | 5.54620 | 13758 ft | 319 kts | 262° |
| 2026-04-28 11:27 | 50.54013 | 5.51008 | 13473 ft | 318 kts | 261° |
| 2026-04-28 11:27 | 50.53778 | 5.47550 | 13206 ft | 318 kts | 262° |
| 2026-04-28 11:27 | 50.53545 | 5.44087 | 12935 ft | 318 kts | 261° |
| 2026-04-28 11:28 | 50.53313 | 5.40631 | 12669 ft | 318 kts | 261° |
| 2026-04-28 11:28 | 50.53077 | 5.37168 | 12406 ft | 318 kts | 261° |
| 2026-04-28 11:28 | 50.52841 | 5.33708 | 12154 ft | 319 kts | 262° |
| 2026-04-28 11:28 | 50.52603 | 5.30248 | 11910 ft | 318 kts | 262° |
| 2026-04-28 11:29 | 50.52365 | 5.26792 | 11659 ft | 318 kts | 260° |
| 2026-04-28 11:29 | 50.52126 | 5.23331 | 11410 ft | 319 kts | 261° |
| 2026-04-28 11:29 | 50.51888 | 5.19856 | 11154 ft | 320 kts | 262° |
| 2026-04-28 11:29 | 50.51645 | 5.16370 | 10914 ft | 322 kts | 262° |
| 2026-04-28 11:30 | 50.51401 | 5.12889 | 10660 ft | 320 kts | 261° |
| 2026-04-28 11:30 | 50.50916 | 5.06026 | 10191 ft | 313 kts | 261° |
| 2026-04-28 11:30 | 50.50677 | 5.02620 | 9921 ft | 312 kts | 262° |
| 2026-04-28 11:31 | 50.50441 | 4.99258 | 9639 ft | 306 kts | 261° |
| 2026-04-28 11:31 | 50.50207 | 4.95975 | 9381 ft | 299 kts | 262° |
| 2026-04-28 11:31 | 50.49977 | 4.92762 | 9109 ft | 293 kts | 262° |
| 2026-04-28 11:31 | 50.49749 | 4.89599 | 8824 ft | 289 kts | 262° |
| 2026-04-28 11:32 | 50.49526 | 4.86489 | 8572 ft | 285 kts | 262° |
| 2026-04-28 11:32 | 50.49300 | 4.83399 | 8321 ft | 284 kts | 261° |
| 2026-04-28 11:32 | 50.49077 | 4.80319 | 8060 ft | 283 kts | 262° |
| 2026-04-28 11:32 | 50.48849 | 4.77245 | 7804 ft | 284 kts | 261° |
| 2026-04-28 11:33 | 50.48626 | 4.74192 | 7561 ft | 288 kts | 261° |
| 2026-04-28 11:33 | 50.48395 | 4.71061 | 7333 ft | 290 kts | 262° |
| 2026-04-28 11:33 | 50.48161 | 4.67885 | 7114 ft | 295 kts | 261° |
| 2026-04-28 11:33 | 50.47926 | 4.64700 | 6857 ft | 290 kts | 262° |
| 2026-04-28 11:34 | 50.47694 | 4.61596 | 6612 ft | 284 kts | 263° |
| 2026-04-28 11:34 | 50.47468 | 4.58519 | 6340 ft | 283 kts | 263° |
| 2026-04-28 11:34 | 50.47356 | 4.57031 | 6263 ft | 284 kts | 263° |
| 2026-04-28 11:35 | 50.47149 | 4.54300 | 6174 ft | 285 kts | 263° |
| 2026-04-28 11:35 | 50.46917 | 4.51222 | 6155 ft | 284 kts | 263° |
| 2026-04-28 11:35 | 50.46688 | 4.48167 | 6176 ft | 280 kts | 264° |
| 2026-04-28 11:35 | 50.46712 | 4.45088 | 5873 ft | 283 kts | 275° |
| 2026-04-28 11:36 | 50.46913 | 4.42015 | 5606 ft | 283 kts | 276° |
| 2026-04-28 11:36 | 50.47112 | 4.38950 | 5315 ft | 282 kts | 276° |
| 2026-04-28 11:36 | 50.47290 | 4.35892 | 5050 ft | 282 kts | 275° |
| 2026-04-28 11:36 | 50.47447 | 4.32827 | 4736 ft | 283 kts | 274° |
| 2026-04-28 11:37 | 50.47598 | 4.29719 | 4387 ft | 286 kts | 274° |
| 2026-04-28 11:37 | 50.47510 | 4.26614 | 4051 ft | 287 kts | 251° |
| 2026-04-28 11:37 | 50.46743 | 4.23740 | 3740 ft | 286 kts | 243° |
| 2026-04-28 11:37 | 50.45648 | 4.21208 | 3413 ft | 276 kts | 217° |
| 2026-04-28 11:38 | 50.44040 | 4.19878 | 3318 ft | 250 kts | 188° |
| 2026-04-28 11:38 | 50.42406 | 4.19601 | 3190 ft | 225 kts | 171° |
| 2026-04-28 11:38 | 50.40964 | 4.20072 | 3039 ft | 200 kts | 148° |
| 2026-04-28 11:38 | 50.40080 | 4.21452 | 2939 ft | 169 kts | 103° |
| 2026-04-28 11:39 | 50.40053 | 4.23143 | 2811 ft | 149 kts | 83° |
| 2026-04-28 11:39 | 50.40256 | 4.24735 | 2569 ft | 145 kts | 68° |
| 2026-04-28 11:39 | 50.40591 | 4.26228 | 2543 ft | 143 kts | 71° |
| 2026-04-28 11:39 | 50.40930 | 4.27719 | 2512 ft | 146 kts | 65° |
| 2026-04-28 11:40 | 50.41340 | 4.29213 | 2541 ft | 152 kts | 66° |
| 2026-04-28 11:40 | 50.41786 | 4.30779 | 2463 ft | 161 kts | 64° |
| 2026-04-28 11:40 | 50.42250 | 4.32383 | 2270 ft | 162 kts | 64° |
| 2026-04-28 11:40 | 50.42711 | 4.33977 | 2065 ft | 157 kts | 65° |
| 2026-04-28 11:41 | 50.43142 | 4.35478 | 1883 ft | 145 kts | 62° |
| 2026-04-28 11:41 | 50.43556 | 4.36904 | 1654 ft | 143 kts | 62° |
| 2026-04-28 11:41 | 50.43945 | 4.38244 | 1478 ft | 131 kts | 64° |
| 2026-04-28 11:41 | 50.44303 | 4.39485 | 1332 ft | 121 kts | 62° |
| 2026-04-28 11:42 | 50.44630 | 4.40687 | 1086 ft | 121 kts | 65° |
| 2026-04-28 11:42 | 50.44988 | 4.41927 | 934 ft | 127 kts | 60° |
| 2026-04-28 11:42 | 50.45387 | 4.43195 | 786 ft | 133 kts | 64° |
| 2026-04-28 11:42 | 50.45758 | 4.44531 | 636 ft | 134 kts | 61° |
| 2026-04-28 11:43 | 50.46132 | 4.45775 | 595 ft | 113 kts | 65° |
| 2026-04-28 11:43 | 50.46361 | 4.46582 | 589 ft | 49 kts | 65° |
| 2026-04-28 11:43 | 50.46449 | 4.46853 | 593 ft | 23 kts | 54° |
| 2026-04-28 11:43 | 50.46557 | 4.46860 | 593 ft | 7 kts | 335° |
| 2026-04-28 11:44 | 50.46604 | 4.46826 | 592 ft | 8 kts | 335° |
| 2026-04-28 11:44 | 50.46663 | 4.46786 | 589 ft | 10 kts | 340° |
| 2026-04-28 11:44 | 50.46728 | 4.46806 | 586 ft | 11 kts | 70° |
| 2026-04-28 11:44 | 50.46751 | 4.46894 | 585 ft | 0 kts | 68° |
| 2026-04-28 11:45 | 50.46759 | 4.46900 | 585 ft | 3 kts | 14° |
| 2026-04-28 11:45 | 50.46784 | 4.46889 | 584 ft | 1 kts | 338° |
| 2026-04-28 11:46 | 50.46795 | 4.46883 | 584 ft | 2 kts | 336° |
| 2026-04-28 11:46 | 50.46805 | 4.46875 | 584 ft | 0 kts | 336° |